createdAt,value
2019-05-14T00:02:02.802Z,1.10
2019-05-14T00:04:06.407Z,1.33
2019-05-14T00:06:11.461Z,1.30
2019-05-14T00:08:17.628Z,1.30
2019-05-14T00:10:21.950Z,1.30
2019-05-14T00:12:33.543Z,1.57
2019-05-14T00:14:40.377Z,1.80
2019-05-14T00:16:43.580Z,1.60
2019-05-14T00:18:47.554Z,1.40
2019-05-14T00:20:51.881Z,1.87
2019-05-14T00:22:55.916Z,1.50
2019-05-14T00:25:01.140Z,1.43
2019-05-14T00:27:07.027Z,1.53
2019-05-14T00:29:11.560Z,1.30
2019-05-14T00:31:15.921Z,1.67
2019-05-14T00:33:22.585Z,1.27
2019-05-14T00:35:26.586Z,1.23
2019-05-14T00:37:33.931Z,1.33
2019-05-14T00:39:41.349Z,1.20
2019-05-14T00:41:46.137Z,1.53
2019-05-14T00:43:51.356Z,1.30
2019-05-14T00:45:55.520Z,1.30
2019-05-14T00:48:08.300Z,1.60
2019-05-14T00:50:12.912Z,1.53
2019-05-14T00:52:17.265Z,1.47
2019-05-14T00:54:21.662Z,1.30
2019-05-14T00:56:25.794Z,1.27
2019-05-14T00:58:31.005Z,1.63
2019-05-14T01:00:35.431Z,1.63
2019-05-14T01:02:41.547Z,1.70
2019-05-14T01:04:45.145Z,1.50
2019-05-14T01:06:51.108Z,1.60
2019-05-14T01:08:56.325Z,1.70
2019-05-14T01:11:01.625Z,1.70
2019-05-14T01:13:05.982Z,1.67
2019-05-14T01:15:14.227Z,1.63
2019-05-14T01:17:19.130Z,1.60
2019-05-14T01:19:23.242Z,1.40
2019-05-14T01:21:28.296Z,1.60
2019-05-14T01:23:32.487Z,1.70
2019-05-14T01:25:36.429Z,1.40
2019-05-14T01:27:41.329Z,1.60
2019-05-14T01:29:45.378Z,1.40
2019-05-14T01:31:51.877Z,1.60
2019-05-14T01:33:55.345Z,1.67
2019-05-14T01:36:01.801Z,1.40
2019-05-14T01:38:05.106Z,1.20
2019-05-14T01:40:11.441Z,1.30
2019-05-14T01:42:14.987Z,1.27
2019-05-14T01:44:21.196Z,1.43
2019-05-14T01:46:28.618Z,1.40
2019-05-14T01:48:32.659Z,2.20
2019-05-14T01:50:36.701Z,1.80
2019-05-14T01:52:41.581Z,1.40
2019-05-14T01:54:45.763Z,1.73
2019-05-14T01:56:55.606Z,1.30
2019-05-14T01:59:01.729Z,1.70
2019-05-14T02:01:05.420Z,1.67
2019-05-14T02:03:11.987Z,1.60
2019-05-14T02:05:15.429Z,1.40
2019-05-14T02:07:21.920Z,1.87
2019-05-14T02:09:25.211Z,1.80
2019-05-14T02:11:32.084Z,1.60
2019-05-14T02:13:35.851Z,1.87
2019-05-14T02:15:42.898Z,1.60
2019-05-14T02:17:45.714Z,1.97
2019-05-14T02:19:51.491Z,1.60
2019-05-14T02:21:56.825Z,1.60
2019-05-14T02:24:02.051Z,2.17
2019-05-14T02:26:06.252Z,2.00
2019-05-14T02:28:11.577Z,1.77
2019-05-14T02:30:19.158Z,1.80
2019-05-14T02:32:21.596Z,1.63
2019-05-14T02:34:25.639Z,1.90
2019-05-14T02:36:30.935Z,1.90
2019-05-14T02:38:35.010Z,2.13
2019-05-14T02:40:42.265Z,2.13
2019-05-14T02:42:49.461Z,2.10
2019-05-14T02:44:52.419Z,1.90
2019-05-14T02:46:59.072Z,1.80
2019-05-14T02:49:02.181Z,1.70
2019-05-14T02:51:06.344Z,2.20
2019-05-14T02:53:10.542Z,1.63
2019-05-14T02:55:14.863Z,1.63
2019-05-14T02:57:20.109Z,1.80
2019-05-14T02:59:24.139Z,1.70
2019-05-14T03:01:30.180Z,1.87
2019-05-14T03:03:35.455Z,1.67
2019-05-14T03:05:45.210Z,1.90
2019-05-14T03:07:50.163Z,2.10
2019-05-14T03:09:54.257Z,1.40
2019-05-14T03:11:59.487Z,1.87
2019-05-14T03:14:03.965Z,1.70
2019-05-14T03:16:22.226Z,1.67
2019-05-14T03:18:13.695Z,2.20
2019-05-14T03:20:19.700Z,2.30
2019-05-14T03:22:28.497Z,1.80
2019-05-14T03:24:29.775Z,2.13
2019-05-14T03:26:33.908Z,1.87
2019-05-14T03:28:39.943Z,1.80
2019-05-14T03:30:44.612Z,2.10
2019-05-14T03:32:52.708Z,1.83
2019-05-14T03:34:55.586Z,2.00
2019-05-14T03:37:03.325Z,1.80
2019-05-14T03:39:10.240Z,2.17
2019-05-14T03:41:14.227Z,2.00
2019-05-14T03:43:20.065Z,2.10
2019-05-14T03:45:29.850Z,1.90
2019-05-14T03:47:33.042Z,1.80
2019-05-14T03:49:39.789Z,2.00
2019-05-14T03:51:43.741Z,1.80
2019-05-14T03:53:57.231Z,2.00
2019-05-14T03:55:53.898Z,1.83
2019-05-14T03:57:59.480Z,1.77
2019-05-14T04:00:03.950Z,2.00
2019-05-14T04:02:10.006Z,1.73
2019-05-14T04:04:14.368Z,1.97
2019-05-14T04:06:19.536Z,2.27
2019-05-14T04:08:29.056Z,1.90
2019-05-14T04:10:32.655Z,1.93
2019-05-14T04:12:40.335Z,2.20
2019-05-14T04:14:49.965Z,1.90
2019-05-14T04:17:05.186Z,2.13
2019-05-14T04:19:03.276Z,2.10
2019-05-14T04:21:10.013Z,2.10
2019-05-14T04:23:19.687Z,2.03
2019-05-14T04:25:22.017Z,1.90
2019-05-14T04:27:29.806Z,2.27
2019-05-14T04:29:34.986Z,2.00
2019-05-14T04:31:42.367Z,1.90
2019-05-14T04:33:50.074Z,2.10
2019-05-14T04:35:53.624Z,2.10
2019-05-14T04:37:58.897Z,2.70
2019-05-14T04:40:10.041Z,1.90
2019-05-14T04:42:13.245Z,2.33
2019-05-14T04:44:19.389Z,2.63
2019-05-14T04:46:23.904Z,2.20
2019-05-14T04:48:37.294Z,2.13
2019-05-14T04:50:40.240Z,2.00
2019-05-14T04:52:43.002Z,2.30
2019-05-14T04:54:49.970Z,2.30
2019-05-14T04:56:59.691Z,2.33
2019-05-14T04:59:03.529Z,2.33
2019-05-14T05:01:09.921Z,2.87
2019-05-14T05:03:13.843Z,2.30
2019-05-14T05:05:19.590Z,2.73
2019-05-14T05:11:31.394Z,2.23
2019-05-14T05:14:08.749Z,2.40
2019-05-14T05:17:44.083Z,1.77
2019-05-14T05:19:39.903Z,2.10
2019-05-14T05:21:58.697Z,2.47
2019-05-14T05:36:48.521Z,1.80
2019-05-14T05:41:55.502Z,1.80
2019-05-14T05:44:15.179Z,1.57
2019-05-14T05:47:18.526Z,2.10
2019-05-14T05:49:25.777Z,1.67
2019-05-14T05:51:31.420Z,1.90
2019-05-14T05:53:39.047Z,1.40
2019-05-14T05:56:04.434Z,1.90
2019-05-14T05:58:19.687Z,1.50
2019-05-14T06:00:39.835Z,1.57
2019-05-14T06:03:13.649Z,1.40
2019-05-14T06:05:22.159Z,1.43
2019-05-14T06:08:23.201Z,1.60
2019-05-14T06:10:41.283Z,1.43
2019-05-14T06:12:49.207Z,1.50
2019-05-14T06:15:43.901Z,1.53
2019-05-14T06:18:09.349Z,1.40
2019-05-14T06:20:23.824Z,1.10
2019-05-14T06:22:29.622Z,1.20
2019-05-14T06:24:38.873Z,1.33
2019-05-14T06:27:03.017Z,1.60
2019-05-14T06:29:25.374Z,1.77
2019-05-14T06:31:32.502Z,1.13
2019-05-14T06:33:48.400Z,1.57
2019-05-14T06:36:33.869Z,1.60
2019-05-14T06:38:40.853Z,1.50
2019-05-14T06:41:21.336Z,1.50
2019-05-14T06:43:53.685Z,1.30
2019-05-14T06:46:44.476Z,1.40
2019-05-14T06:50:08.411Z,1.50
2019-05-14T06:52:09.969Z,1.37
2019-05-14T06:54:21.855Z,1.33
2019-05-14T06:56:28.387Z,1.60
2019-05-14T06:58:58.485Z,1.80
2019-05-14T07:04:40.493Z,1.70
2019-05-14T07:07:04.302Z,1.20
2019-05-14T07:09:18.550Z,1.50
2019-05-14T07:11:49.204Z,1.77
2019-05-14T07:14:15.212Z,1.50
2019-05-14T07:16:28.476Z,1.20
2019-05-14T07:18:45.418Z,1.10
2019-05-14T07:20:48.666Z,1.40
2019-05-14T07:22:58.691Z,1.20
2019-05-14T07:25:03.419Z,1.13
2019-05-14T07:31:18.604Z,1.33
2019-05-14T07:33:33.630Z,1.40
2019-05-14T07:35:48.965Z,1.63
2019-05-14T07:38:00.829Z,1.53
2019-05-14T07:40:30.698Z,1.57
2019-05-14T07:42:40.312Z,1.30
2019-05-14T07:45:38.760Z,1.60
2019-05-14T07:48:09.757Z,1.50
2019-05-14T07:50:29.082Z,1.47
2019-05-14T07:52:50.246Z,1.10
2019-05-14T07:55:40.293Z,1.43
2019-05-14T07:58:52.438Z,1.20
2019-05-14T08:01:33.606Z,1.13
2019-05-14T08:04:28.846Z,1.20
2019-05-14T08:10:28.936Z,1.70
2019-05-14T08:16:08.779Z,1.70
2019-05-14T08:18:35.974Z,1.10
2019-05-14T08:20:53.166Z,1.00
2019-05-14T08:23:33.475Z,1.07
2019-05-14T08:25:48.149Z,0.93
2019-05-14T08:28:29.180Z,1.20
2019-05-14T08:30:49.083Z,1.30
2019-05-14T08:33:08.785Z,1.20
2019-05-14T08:35:34.120Z,1.10
2019-05-14T08:37:42.409Z,0.90
2019-05-14T08:42:42.073Z,1.43
2019-05-14T08:45:14.463Z,1.40
2019-05-14T08:47:44.163Z,1.10
2019-05-14T08:50:02.373Z,1.03
2019-05-14T08:52:35.055Z,1.10
2019-05-14T08:54:46.211Z,1.30
2019-05-14T08:57:38.852Z,0.80
2019-05-14T09:00:14.528Z,1.37
2019-05-14T09:02:35.668Z,1.23
2019-05-14T09:04:55.374Z,1.20
2019-05-14T09:07:03.079Z,1.03
2019-05-14T09:09:48.807Z,1.17
2019-05-14T09:12:00.780Z,1.40
2019-05-14T09:14:19.674Z,1.10
2019-05-14T09:16:46.032Z,1.00
2019-05-14T09:18:45.316Z,0.93
2019-05-14T09:21:10.823Z,1.10
2019-05-14T09:23:21.201Z,1.03
2019-05-14T09:25:31.122Z,1.23
2019-05-14T09:28:01.740Z,1.00
2019-05-14T09:30:11.630Z,1.30
2019-05-14T09:32:24.178Z,1.50
2019-05-14T09:34:51.035Z,1.00
2019-05-14T09:37:08.791Z,1.30
2019-05-14T09:39:31.221Z,1.00
2019-05-14T09:41:52.706Z,1.47
2019-05-14T09:44:13.445Z,0.97
2019-05-14T09:46:23.283Z,1.20
2019-05-14T09:48:41.276Z,1.20
2019-05-14T09:50:51.708Z,1.40
2019-05-14T09:53:23.264Z,1.20
2019-05-14T09:55:25.041Z,1.00
2019-05-14T09:57:41.805Z,1.17
2019-05-14T09:59:52.998Z,1.10
2019-05-14T10:02:09.146Z,1.00
2019-05-14T10:04:13.777Z,1.07
2019-05-14T10:06:31.102Z,1.10
2019-05-14T10:08:45.242Z,1.33
2019-05-14T10:11:00.214Z,1.10
2019-05-14T10:13:23.381Z,0.90
2019-05-14T10:15:39.884Z,1.20
2019-05-14T10:17:44.938Z,1.00
2019-05-14T10:20:09.127Z,1.00
2019-05-14T10:22:22.003Z,1.00
2019-05-14T10:24:40.014Z,1.07
2019-05-14T10:27:28.456Z,1.00
2019-05-14T10:29:33.831Z,1.00
2019-05-14T10:31:48.545Z,0.97
2019-05-14T10:34:13.025Z,1.13
2019-05-14T10:36:37.883Z,0.93
2019-05-14T10:38:50.524Z,1.00
2019-05-14T10:41:05.893Z,0.90
2019-05-14T10:43:43.812Z,0.90
2019-05-14T10:45:59.357Z,1.10
2019-05-14T10:48:09.699Z,0.90
2019-05-14T10:50:22.397Z,1.00
2019-05-14T10:52:39.519Z,0.90
2019-05-14T10:54:59.443Z,1.03
2019-05-14T10:57:10.004Z,1.20
2019-05-14T10:59:33.116Z,1.00
2019-05-14T11:01:52.954Z,0.90
2019-05-14T11:04:07.771Z,0.90
2019-05-14T11:09:32.633Z,1.10
2019-05-14T11:11:39.533Z,0.80
2019-05-14T11:13:55.788Z,0.90
2019-05-14T11:16:08.569Z,1.07
2019-05-14T11:18:19.940Z,0.83
2019-05-14T11:20:31.219Z,1.03
2019-05-14T11:22:58.443Z,1.07
2019-05-14T11:25:20.736Z,1.10
2019-05-14T11:27:29.926Z,0.70
2019-05-14T11:29:39.496Z,0.80
2019-05-14T11:31:56.899Z,0.90
2019-05-14T11:34:10.633Z,0.83
2019-05-14T11:36:23.759Z,1.10
2019-05-14T11:38:36.929Z,0.90
2019-05-14T11:40:49.292Z,0.80
2019-05-14T11:43:04.222Z,0.90
2019-05-14T11:45:27.353Z,0.70
2019-05-14T11:47:43.092Z,0.70
2019-05-14T11:50:04.816Z,0.80
2019-05-14T11:52:23.280Z,0.83
2019-05-14T11:54:30.446Z,0.97
2019-05-14T11:56:50.092Z,0.57
2019-05-14T11:59:08.734Z,1.20
2019-05-14T12:01:20.639Z,0.70
2019-05-14T12:03:28.609Z,1.77
2019-05-14T12:05:49.541Z,0.80
2019-05-14T12:08:09.696Z,0.93
2019-05-14T12:13:19.212Z,1.03
2019-05-14T12:15:23.092Z,1.83
2019-05-14T12:17:29.462Z,0.80
2019-05-14T12:19:33.444Z,1.00
2019-05-14T12:21:39.741Z,1.00
2019-05-14T12:23:43.590Z,0.93
2019-05-14T12:25:49.131Z,1.47
2019-05-14T12:27:53.549Z,0.70
2019-05-14T12:29:59.891Z,1.10
2019-05-14T12:32:03.233Z,0.80
2019-05-14T12:34:07.426Z,0.90
2019-05-14T12:36:11.621Z,1.00
2019-05-14T12:38:18.547Z,1.03
2019-05-14T12:40:24.071Z,0.80
2019-05-14T12:42:29.665Z,1.00
2019-05-14T12:44:37.207Z,0.70
2019-05-14T12:46:39.942Z,0.90
2019-05-14T12:48:44.033Z,0.70
2019-05-14T12:50:49.030Z,0.77
2019-05-14T12:52:54.239Z,0.80
2019-05-14T12:54:59.759Z,0.80
2019-05-14T12:57:04.192Z,0.87
2019-05-14T12:59:08.559Z,1.00
2019-05-14T13:01:12.612Z,0.80
2019-05-14T13:03:22.442Z,0.70
2019-05-14T13:05:29.223Z,1.00
2019-05-14T13:07:34.475Z,0.90
2019-05-14T13:09:41.507Z,0.83
2019-05-14T13:11:47.882Z,0.70
2019-05-14T13:13:58.322Z,0.60
2019-05-14T13:16:04.320Z,0.70
2019-05-14T13:18:08.804Z,0.70
2019-05-14T13:20:14.083Z,0.80
2019-05-14T13:22:30.249Z,0.90
2019-05-14T13:24:30.096Z,1.00
2019-05-14T13:26:35.324Z,0.90
2019-05-14T13:28:40.249Z,1.30
2019-05-14T13:30:44.857Z,2.80
2019-05-14T13:32:49.319Z,1.40
2019-05-14T13:35:02.410Z,0.87
2019-05-14T13:37:06.622Z,2.10
2019-05-14T13:39:11.078Z,1.53
2019-05-14T13:41:15.067Z,2.70
2019-05-14T13:43:19.355Z,3.00
2019-05-14T13:45:25.719Z,4.67
2019-05-14T13:47:30.042Z,4.40
2019-05-14T13:49:34.392Z,2.67
2019-05-14T13:51:38.946Z,2.07
2019-05-14T13:53:42.896Z,2.30
2019-05-14T13:55:56.555Z,1.80
2019-05-14T13:57:53.319Z,2.50
2019-05-14T13:59:58.987Z,1.70
2019-05-14T14:02:03.323Z,0.63
2019-05-14T14:04:14.299Z,0.80
2019-05-14T14:06:13.491Z,0.83
2019-05-14T14:08:19.328Z,0.70
2019-05-14T14:10:25.111Z,1.00
2019-05-14T14:12:32.521Z,1.20
2019-05-14T14:14:39.120Z,1.20
2019-05-14T14:16:44.184Z,0.90
2019-05-14T14:18:50.037Z,0.80
2019-05-14T14:20:54.594Z,1.00
2019-05-14T14:23:09.141Z,1.40
2019-05-14T14:25:08.622Z,2.37
2019-05-14T14:27:11.717Z,1.00
2019-05-14T14:29:19.928Z,0.97
2019-05-14T14:31:24.239Z,2.40
2019-05-14T14:33:28.997Z,2.00
2019-05-14T14:35:33.866Z,2.00
2019-05-14T14:37:39.632Z,1.77
2019-05-14T14:39:48.839Z,2.27
2019-05-14T14:41:53.327Z,3.00
2019-05-14T15:35:48.695Z,0.90
2019-05-14T15:37:51.759Z,1.20
2019-05-14T15:39:55.948Z,1.00
2019-05-14T15:42:13.248Z,1.20
2019-05-14T15:44:12.949Z,1.10
2019-05-14T15:46:18.492Z,1.30
2019-05-14T15:48:23.075Z,1.00
2019-05-14T15:50:32.467Z,1.40
2019-05-14T15:52:39.976Z,1.20
2019-05-14T15:54:47.372Z,1.00
2019-05-14T15:56:50.479Z,0.90
2019-05-14T15:58:54.478Z,2.07
2019-05-14T16:01:01.329Z,1.10
2019-05-14T16:03:18.657Z,0.80
2019-05-14T16:05:22.306Z,1.10
2019-05-14T16:07:29.637Z,1.00
2019-05-14T16:09:34.171Z,1.10
2019-05-14T16:11:39.353Z,1.33
2019-05-14T16:13:44.900Z,1.00
2019-05-14T16:15:49.249Z,1.00
2019-05-14T16:18:05.728Z,0.93
2019-05-14T16:19:59.588Z,1.37
2019-05-14T16:22:03.614Z,0.90
2019-05-14T16:24:13.892Z,1.33
2019-05-14T16:26:18.797Z,1.17
2019-05-14T16:28:23.311Z,0.90
2019-05-14T16:30:28.930Z,0.80
2019-05-14T16:32:33.190Z,0.97
2019-05-14T16:34:41.029Z,1.07
2019-05-14T16:36:42.981Z,0.90
2019-05-14T16:38:48.366Z,1.03
2019-05-14T16:40:52.760Z,0.80
2019-05-14T16:42:58.984Z,1.00
2019-05-14T16:45:02.781Z,1.23
2019-05-14T16:47:25.387Z,1.20
2019-05-14T16:49:30.168Z,1.20
2019-05-14T16:51:35.504Z,1.30
2019-05-14T16:53:41.287Z,1.40
2019-05-14T16:55:45.216Z,1.10
2019-05-14T16:57:50.435Z,1.63
2019-05-14T16:59:54.574Z,1.13
2019-05-14T17:02:00.661Z,1.40
2019-05-14T17:04:04.766Z,1.13
2019-05-14T17:06:08.936Z,1.60
2019-05-14T17:08:13.469Z,1.50
2019-05-14T17:10:18.241Z,1.10
2019-05-14T17:12:23.754Z,1.30
2019-05-14T17:14:29.125Z,1.00
2019-05-14T17:16:37.511Z,1.00
2019-05-14T17:18:44.470Z,0.80
2019-05-14T17:20:49.864Z,0.73
2019-05-14T17:22:54.175Z,0.80
2019-05-14T17:25:01.050Z,0.70
2019-05-14T17:27:05.340Z,0.87
2019-05-14T17:29:10.533Z,1.17
2019-05-14T17:31:15.030Z,1.10
2019-05-14T17:33:21.767Z,1.40
2019-05-14T17:35:29.604Z,0.80
2019-05-14T17:37:33.488Z,0.70
2019-05-14T17:39:38.777Z,1.10
2019-05-14T17:41:44.092Z,1.00
2019-05-14T17:43:52.011Z,1.17
2019-05-14T17:45:58.753Z,1.70
2019-05-14T17:48:02.668Z,6.40
2019-05-14T17:50:07.731Z,2.63
2019-05-14T17:52:12.202Z,1.20
2019-05-14T17:54:18.571Z,1.00
2019-05-14T17:56:23.461Z,1.10
2019-05-14T17:58:28.735Z,1.17
2019-05-14T18:00:34.607Z,1.20
2019-05-14T18:02:38.927Z,1.50
2019-05-14T18:04:48.989Z,1.10
2019-05-14T18:06:53.061Z,1.20
2019-05-14T18:08:59.820Z,1.50
2019-05-14T18:11:04.291Z,1.43
2019-05-14T18:13:10.986Z,1.27
2019-05-14T18:15:15.584Z,1.70
2019-05-14T18:17:19.779Z,1.30
2019-05-14T18:19:23.965Z,1.47
2019-05-14T18:21:28.685Z,1.33
2019-05-14T18:23:32.904Z,1.40
2019-05-14T18:25:38.917Z,2.50
2019-05-14T18:27:43.209Z,1.57
2019-05-14T18:29:48.867Z,1.40
2019-05-14T18:31:54.821Z,1.40
2019-05-14T18:33:59.307Z,1.40
2019-05-14T18:36:04.713Z,1.67
2019-05-14T18:38:09.143Z,1.80
2019-05-14T18:40:13.542Z,1.30
2019-05-14T18:42:19.009Z,1.10
2019-05-14T18:44:28.444Z,1.17
2019-05-14T18:46:33.154Z,1.10
2019-05-14T18:48:37.590Z,1.37
2019-05-14T18:50:42.033Z,1.30
2019-05-14T18:52:48.480Z,2.80
2019-05-14T18:54:59.028Z,1.50
2019-05-14T18:57:12.199Z,1.30
2019-05-14T18:59:21.438Z,1.60
2019-05-14T19:01:25.136Z,1.50
2019-05-14T19:03:30.698Z,1.10
2019-05-14T19:05:38.192Z,1.20
2019-05-14T19:07:45.528Z,1.00
2019-05-14T19:09:50.289Z,1.43
2019-05-14T19:11:58.801Z,1.30
2019-05-14T19:14:03.437Z,1.10
2019-05-14T19:16:08.337Z,1.13
2019-05-14T19:18:14.158Z,1.00
2019-05-14T19:20:19.870Z,1.13
2019-05-14T19:22:28.875Z,1.23
2019-05-14T19:24:33.397Z,1.20
2019-05-14T19:26:41.042Z,1.77
2019-05-14T19:28:48.599Z,1.70
2019-05-14T19:31:57.480Z,1.40
2019-05-14T19:36:28.102Z,1.67
2019-05-14T19:38:31.552Z,1.90
2019-05-14T19:40:35.824Z,1.40
2019-05-14T19:42:40.344Z,1.50
2019-05-14T19:44:45.001Z,1.70
2019-05-14T19:46:49.419Z,1.53
2019-05-14T19:48:53.763Z,2.77
2019-05-14T19:50:58.515Z,3.00
2019-05-14T19:53:03.223Z,1.60
2019-05-14T19:55:08.006Z,1.40
2019-05-14T19:57:12.484Z,1.53
2019-05-14T19:59:20.505Z,1.80
2019-05-14T20:01:25.230Z,1.70
2019-05-14T20:03:30.665Z,1.60
2019-05-14T20:05:34.990Z,1.37
2019-05-14T20:07:43.833Z,1.30
2019-05-14T20:09:48.405Z,1.57
2019-05-14T20:11:53.304Z,1.50
2019-05-14T20:13:59.112Z,1.67
2019-05-14T20:16:04.005Z,1.40
2019-05-14T20:18:08.969Z,1.80
2019-05-14T20:20:19.359Z,1.43
2019-05-14T20:22:28.362Z,2.30
2019-05-14T20:24:35.454Z,1.63
2019-05-14T20:26:41.262Z,2.17
2019-05-14T20:28:48.553Z,1.77
2019-05-14T20:30:59.628Z,2.00
2019-05-14T20:33:08.580Z,2.00
2019-05-14T20:35:27.489Z,2.13
2019-05-14T20:37:19.499Z,2.00
2019-05-14T20:39:23.581Z,1.63
2019-05-14T20:41:28.718Z,2.10
2019-05-14T20:43:38.539Z,1.97
2019-05-14T20:45:44.479Z,1.77
2019-05-14T20:47:50.352Z,1.90
2019-05-14T20:49:57.948Z,1.80
2019-05-14T20:52:03.113Z,1.97
2019-05-14T20:54:08.934Z,2.00
2019-05-14T20:56:13.383Z,2.03
2019-05-14T20:58:19.956Z,2.00
2019-05-14T21:00:23.575Z,2.63
2019-05-14T21:02:31.334Z,2.10
2019-05-14T21:04:36.693Z,2.30
2019-05-14T21:06:40.840Z,2.20
2019-05-14T21:08:45.273Z,2.10
2019-05-14T21:10:49.638Z,2.00
2019-05-14T21:12:53.671Z,2.20
2019-05-14T21:14:59.119Z,2.20
2019-05-14T21:17:05.680Z,2.00
2019-05-14T21:19:09.792Z,2.40
2019-05-14T21:21:14.344Z,2.23
2019-05-14T21:23:19.025Z,1.87
2019-05-14T21:25:29.577Z,2.03
2019-05-14T21:27:48.447Z,2.10
2019-05-14T21:29:48.959Z,2.67
2019-05-14T21:31:53.463Z,2.60
2019-05-14T21:33:58.632Z,2.40
2019-05-14T21:36:09.518Z,2.40
2019-05-14T21:38:16.361Z,2.40
2019-05-14T21:40:31.653Z,2.73
2019-05-14T21:42:34.016Z,2.30
2019-05-14T21:44:40.963Z,2.00
2019-05-14T21:46:45.138Z,1.83
2019-05-14T21:48:52.662Z,1.90
2019-05-14T21:51:00.505Z,2.03
2019-05-14T21:53:02.773Z,1.70
2019-05-14T21:55:10.704Z,2.40
2019-05-14T21:57:21.223Z,2.00
2019-05-14T21:59:28.215Z,2.10
2019-05-14T22:01:33.408Z,2.20
2019-05-14T22:03:40.267Z,2.20
2019-05-14T22:05:48.252Z,2.00
2019-05-14T22:07:55.287Z,1.87
2019-05-14T22:10:01.897Z,1.73
2019-05-14T22:12:07.785Z,1.97
2019-05-14T22:14:12.376Z,1.70
2019-05-14T22:16:19.708Z,2.13
2019-05-14T22:18:24.279Z,2.03
2019-05-14T22:20:43.993Z,2.20
2019-05-14T22:22:51.259Z,1.70
2019-05-14T22:24:55.524Z,2.17
2019-05-14T22:26:59.702Z,2.20
2019-05-14T22:29:05.139Z,2.27
2019-05-14T22:31:09.742Z,2.37
2019-05-14T22:33:14.019Z,2.10
2019-05-14T22:35:18.748Z,1.97
2019-05-14T22:37:22.958Z,2.43
2019-05-14T22:39:30.620Z,2.10
2019-05-14T22:41:34.681Z,2.20
2019-05-14T22:43:38.961Z,1.90
2019-05-14T22:45:43.346Z,1.90
2019-05-14T22:47:49.020Z,2.03
2019-05-14T22:49:53.405Z,2.07
2019-05-14T22:51:58.848Z,2.17
2019-05-14T22:54:03.223Z,2.03
2019-05-14T22:56:08.297Z,2.30
2019-05-14T22:58:24.726Z,2.50
2019-05-14T23:00:20.926Z,2.17
2019-05-14T23:02:24.006Z,2.33
2019-05-14T23:04:28.993Z,2.20
2019-05-14T23:06:33.245Z,2.10
2019-05-14T23:08:39.253Z,1.93
2019-05-14T23:10:45.518Z,2.50
2019-05-14T23:12:49.621Z,2.33
2019-05-14T23:14:53.545Z,2.40
2019-05-14T23:16:57.859Z,2.40
2019-05-14T23:19:02.010Z,2.27
2019-05-14T23:21:08.606Z,2.60
2019-05-14T23:23:11.785Z,2.60
2019-05-14T23:25:18.256Z,2.90
2019-05-14T23:27:21.627Z,2.60
2019-05-14T23:29:28.786Z,2.43
2019-05-14T23:31:31.755Z,2.50
2019-05-14T23:33:38.854Z,2.63
2019-05-14T23:35:43.575Z,2.40
2019-05-14T23:37:48.837Z,2.80
2019-05-14T23:39:53.387Z,2.53
2019-05-14T23:41:58.306Z,2.33
2019-05-14T23:44:02.456Z,2.10
2019-05-14T23:46:06.433Z,2.73
2019-05-14T23:48:10.618Z,2.10
2019-05-14T23:50:14.771Z,2.07
2019-05-14T23:52:19.338Z,2.17
2019-05-14T23:54:23.861Z,2.50
2019-05-14T23:56:28.814Z,2.27
2019-05-14T23:58:33.187Z,2.57
